sensor_id;sensor_type;location;lat;lon;timestamp;P1;durP1;ratioP1;P2;durP2;ratioP2
351;SDS011;164;50.784;6.496;2022-08-03T00:00:54;2.70;;;2.58;;
351;SDS011;164;50.784;6.496;2022-08-03T00:03:22;2.65;;;2.42;;
351;SDS011;164;50.784;6.496;2022-08-03T00:05:50;3.58;;;2.42;;
351;SDS011;164;50.784;6.496;2022-08-03T00:08:17;2.72;;;2.40;;
351;SDS011;164;50.784;6.496;2022-08-03T00:10:45;6.75;;;2.33;;
351;SDS011;164;50.784;6.496;2022-08-03T00:13:11;2.75;;;2.58;;
351;SDS011;164;50.784;6.496;2022-08-03T00:15:39;3.10;;;2.63;;
351;SDS011;164;50.784;6.496;2022-08-03T00:18:06;6.57;;;3.25;;
351;SDS011;164;50.784;6.496;2022-08-03T00:20:34;2.80;;;2.60;;
351;SDS011;164;50.784;6.496;2022-08-03T00:23:03;2.60;;;2.40;;
351;SDS011;164;50.784;6.496;2022-08-03T00:25:30;4.80;;;2.83;;
351;SDS011;164;50.784;6.496;2022-08-03T00:27:57;2.40;;;2.30;;
351;SDS011;164;50.784;6.496;2022-08-03T00:30:25;2.80;;;2.35;;
351;SDS011;164;50.784;6.496;2022-08-03T00:32:52;3.13;;;2.40;;
351;SDS011;164;50.784;6.496;2022-08-03T00:35:19;3.13;;;2.55;;
351;SDS011;164;50.784;6.496;2022-08-03T00:37:46;2.83;;;2.60;;
351;SDS011;164;50.784;6.496;2022-08-03T00:40:15;3.80;;;2.72;;
351;SDS011;164;50.784;6.496;2022-08-03T00:42:49;6.85;;;2.92;;
351;SDS011;164;50.784;6.496;2022-08-03T00:45:17;2.80;;;2.60;;
351;SDS011;164;50.784;6.496;2022-08-03T00:47:46;3.03;;;2.72;;
351;SDS011;164;50.784;6.496;2022-08-03T00:50:13;2.72;;;2.53;;
351;SDS011;164;50.784;6.496;2022-08-03T00:52:41;2.78;;;2.63;;
351;SDS011;164;50.784;6.496;2022-08-03T00:55:08;3.50;;;3.30;;
351;SDS011;164;50.784;6.496;2022-08-03T00:57:37;3.22;;;3.03;;
351;SDS011;164;50.784;6.496;2022-08-03T01:00:05;3.40;;;3.08;;
351;SDS011;164;50.784;6.496;2022-08-03T01:02:33;4.72;;;3.17;;
351;SDS011;164;50.784;6.496;2022-08-03T01:05:00;3.10;;;2.90;;
351;SDS011;164;50.784;6.496;2022-08-03T01:07:31;3.88;;;3.67;;
351;SDS011;164;50.784;6.496;2022-08-03T01:10:07;3.08;;;2.88;;
351;SDS011;164;50.784;6.496;2022-08-03T01:12:46;3.08;;;2.80;;
351;SDS011;164;50.784;6.496;2022-08-03T01:15:18;3.10;;;2.90;;
351;SDS011;164;50.784;6.496;2022-08-03T01:17:54;5.45;;;2.85;;
351;SDS011;164;50.784;6.496;2022-08-03T01:20:26;4.40;;;3.25;;
351;SDS011;164;50.784;6.496;2022-08-03T01:23:19;3.63;;;3.05;;
351;SDS011;164;50.784;6.496;2022-08-03T01:26:05;5.20;;;2.97;;
351;SDS011;164;50.784;6.496;2022-08-03T01:28:52;3.40;;;3.20;;
351;SDS011;164;50.784;6.496;2022-08-03T01:31:29;2.70;;;2.50;;
351;SDS011;164;50.784;6.496;2022-08-03T01:34:00;3.95;;;2.95;;
351;SDS011;164;50.784;6.496;2022-08-03T01:36:31;2.65;;;2.45;;
351;SDS011;164;50.784;6.496;2022-08-03T01:39:02;4.57;;;3.25;;
351;SDS011;164;50.784;6.496;2022-08-03T01:41:34;3.10;;;2.90;;
351;SDS011;164;50.784;6.496;2022-08-03T01:44:07;5.20;;;3.30;;
351;SDS011;164;50.784;6.496;2022-08-03T01:46:38;3.05;;;2.85;;
351;SDS011;164;50.784;6.496;2022-08-03T01:49:07;2.80;;;2.55;;
351;SDS011;164;50.784;6.496;2022-08-03T01:51:36;6.30;;;3.17;;
351;SDS011;164;50.784;6.496;2022-08-03T01:54:04;3.08;;;2.88;;
351;SDS011;164;50.784;6.496;2022-08-03T01:56:33;3.33;;;3.13;;
351;SDS011;164;50.784;6.496;2022-08-03T01:59:02;3.03;;;2.75;;
351;SDS011;164;50.784;6.496;2022-08-03T02:01:31;4.05;;;3.00;;
351;SDS011;164;50.784;6.496;2022-08-03T02:04:01;3.65;;;3.45;;
351;SDS011;164;50.784;6.496;2022-08-03T02:06:29;2.65;;;2.45;;
351;SDS011;164;50.784;6.496;2022-08-03T02:08:59;2.78;;;2.60;;
351;SDS011;164;50.784;6.496;2022-08-03T02:11:29;2.80;;;2.60;;
351;SDS011;164;50.784;6.496;2022-08-03T02:13:57;3.08;;;2.83;;
351;SDS011;164;50.784;6.496;2022-08-03T02:16:27;3.53;;;2.58;;
351;SDS011;164;50.784;6.496;2022-08-03T02:18:56;3.72;;;2.67;;
351;SDS011;164;50.784;6.496;2022-08-03T02:21:26;3.20;;;3.00;;
351;SDS011;164;50.784;6.496;2022-08-03T02:23:56;2.85;;;2.58;;
351;SDS011;164;50.784;6.496;2022-08-03T02:26:23;3.67;;;2.60;;
351;SDS011;164;50.784;6.496;2022-08-03T02:28:54;4.20;;;2.10;;
351;SDS011;164;50.784;6.496;2022-08-03T02:31:25;3.13;;;2.50;;
351;SDS011;164;50.784;6.496;2022-08-03T02:33:56;3.67;;;2.75;;
351;SDS011;164;50.784;6.496;2022-08-03T02:36:28;4.93;;;2.45;;
351;SDS011;164;50.784;6.496;2022-08-03T02:38:59;3.25;;;2.70;;
351;SDS011;164;50.784;6.496;2022-08-03T02:41:28;2.83;;;2.63;;
351;SDS011;164;50.784;6.496;2022-08-03T02:43:58;4.05;;;2.70;;
351;SDS011;164;50.784;6.496;2022-08-03T02:46:29;4.18;;;3.60;;
351;SDS011;164;50.784;6.496;2022-08-03T02:48:59;5.93;;;3.35;;
351;SDS011;164;50.784;6.496;2022-08-03T02:51:30;2.90;;;2.70;;
351;SDS011;164;50.784;6.496;2022-08-03T02:53:59;4.95;;;2.70;;
351;SDS011;164;50.784;6.496;2022-08-03T02:56:28;3.00;;;2.40;;
351;SDS011;164;50.784;6.496;2022-08-03T02:58:56;4.38;;;2.90;;
351;SDS011;164;50.784;6.496;2022-08-03T03:01:25;2.95;;;2.75;;
351;SDS011;164;50.784;6.496;2022-08-03T03:03:54;2.90;;;2.70;;
351;SDS011;164;50.784;6.496;2022-08-03T03:06:22;5.38;;;2.70;;
351;SDS011;164;50.784;6.496;2022-08-03T03:08:52;3.50;;;2.20;;
351;SDS011;164;50.784;6.496;2022-08-03T03:11:20;4.88;;;3.28;;
351;SDS011;164;50.784;6.496;2022-08-03T03:13:48;2.90;;;2.28;;
351;SDS011;164;50.784;6.496;2022-08-03T03:16:16;3.17;;;2.20;;
351;SDS011;164;50.784;6.496;2022-08-03T03:18:45;2.60;;;2.42;;
351;SDS011;164;50.784;6.496;2022-08-03T03:21:15;3.05;;;2.63;;
351;SDS011;164;50.784;6.496;2022-08-03T03:23:44;3.33;;;2.53;;
351;SDS011;164;50.784;6.496;2022-08-03T03:26:13;3.65;;;2.85;;
351;SDS011;164;50.784;6.496;2022-08-03T03:28:41;3.65;;;2.55;;
351;SDS011;164;50.784;6.496;2022-08-03T03:31:09;3.70;;;2.30;;
351;SDS011;164;50.784;6.496;2022-08-03T03:33:37;3.47;;;3.28;;
351;SDS011;164;50.784;6.496;2022-08-03T03:36:05;3.72;;;3.40;;
351;SDS011;164;50.784;6.496;2022-08-03T03:38:33;2.60;;;2.38;;
351;SDS011;164;50.784;6.496;2022-08-03T03:41:00;2.80;;;2.55;;
351;SDS011;164;50.784;6.496;2022-08-03T03:43:29;3.13;;;2.60;;
351;SDS011;164;50.784;6.496;2022-08-03T03:45:57;5.13;;;2.70;;
351;SDS011;164;50.784;6.496;2022-08-03T03:48:24;3.33;;;3.13;;
351;SDS011;164;50.784;6.496;2022-08-03T03:50:52;2.60;;;2.40;;
351;SDS011;164;50.784;6.496;2022-08-03T03:53:21;2.88;;;2.70;;
351;SDS011;164;50.784;6.496;2022-08-03T03:55:49;4.32;;;2.55;;
351;SDS011;164;50.784;6.496;2022-08-03T03:58:18;4.22;;;2.95;;
351;SDS011;164;50.784;6.496;2022-08-03T04:00:47;3.53;;;3.00;;
351;SDS011;164;50.784;6.496;2022-08-03T04:03:14;2.75;;;2.20;;
351;SDS011;164;50.784;6.496;2022-08-03T04:05:41;2.95;;;2.75;;
351;SDS011;164;50.784;6.496;2022-08-03T04:08:26;2.85;;;2.65;;
351;SDS011;164;50.784;6.496;2022-08-03T04:11:12;3.08;;;2.00;;
351;SDS011;164;50.784;6.496;2022-08-03T04:13:43;5.07;;;2.60;;
351;SDS011;164;50.784;6.496;2022-08-03T04:16:15;2.42;;;2.25;;
351;SDS011;164;50.784;6.496;2022-08-03T04:18:47;2.70;;;2.50;;
351;SDS011;164;50.784;6.496;2022-08-03T04:21:17;2.95;;;2.80;;
351;SDS011;164;50.784;6.496;2022-08-03T04:23:47;2.47;;;2.28;;
351;SDS011;164;50.784;6.496;2022-08-03T04:26:17;5.22;;;3.38;;
351;SDS011;164;50.784;6.496;2022-08-03T04:28:46;4.07;;;2.45;;
351;SDS011;164;50.784;6.496;2022-08-03T04:31:17;2.40;;;2.20;;
351;SDS011;164;50.784;6.496;2022-08-03T04:33:47;2.45;;;2.33;;
351;SDS011;164;50.784;6.496;2022-08-03T04:36:16;2.42;;;2.20;;
351;SDS011;164;50.784;6.496;2022-08-03T04:38:51;2.60;;;2.40;;
351;SDS011;164;50.784;6.496;2022-08-03T04:41:22;3.05;;;2.85;;
351;SDS011;164;50.784;6.496;2022-08-03T04:43:52;3.50;;;3.30;;
351;SDS011;164;50.784;6.496;2022-08-03T04:46:22;3.00;;;2.80;;
351;SDS011;164;50.784;6.496;2022-08-03T04:48:52;2.70;;;2.50;;
351;SDS011;164;50.784;6.496;2022-08-03T04:51:19;4.60;;;2.88;;
351;SDS011;164;50.784;6.496;2022-08-03T04:53:46;3.42;;;3.22;;
351;SDS011;164;50.784;6.496;2022-08-03T04:56:13;3.47;;;2.90;;
351;SDS011;164;50.784;6.496;2022-08-03T04:58:40;5.00;;;2.55;;
351;SDS011;164;50.784;6.496;2022-08-03T05:01:07;3.45;;;2.60;;
351;SDS011;164;50.784;6.496;2022-08-03T05:03:36;3.03;;;2.83;;
351;SDS011;164;50.784;6.496;2022-08-03T05:06:03;3.08;;;2.90;;
351;SDS011;164;50.784;6.496;2022-08-03T05:08:31;2.75;;;2.33;;
351;SDS011;164;50.784;6.496;2022-08-03T05:10:58;4.47;;;3.45;;
351;SDS011;164;50.784;6.496;2022-08-03T05:13:25;4.78;;;3.47;;
351;SDS011;164;50.784;6.496;2022-08-03T05:15:52;2.63;;;2.42;;
351;SDS011;164;50.784;6.496;2022-08-03T05:18:19;2.97;;;2.70;;
351;SDS011;164;50.784;6.496;2022-08-03T05:20:48;3.63;;;3.28;;
351;SDS011;164;50.784;6.496;2022-08-03T05:23:15;3.05;;;2.53;;
351;SDS011;164;50.784;6.496;2022-08-03T05:25:42;3.38;;;3.17;;
351;SDS011;164;50.784;6.496;2022-08-03T05:28:09;3.88;;;3.63;;
351;SDS011;164;50.784;6.496;2022-08-03T05:30:36;8.00;;;7.60;;
351;SDS011;164;50.784;6.496;2022-08-03T05:33:03;3.90;;;2.70;;
351;SDS011;164;50.784;6.496;2022-08-03T05:35:30;2.85;;;2.65;;
351;SDS011;164;50.784;6.496;2022-08-03T05:38:00;3.05;;;2.55;;
351;SDS011;164;50.784;6.496;2022-08-03T05:40:27;3.47;;;2.28;;
351;SDS011;164;50.784;6.496;2022-08-03T05:42:54;3.15;;;2.80;;
351;SDS011;164;50.784;6.496;2022-08-03T05:45:22;3.53;;;3.13;;
351;SDS011;164;50.784;6.496;2022-08-03T05:47:49;2.90;;;2.70;;
351;SDS011;164;50.784;6.496;2022-08-03T05:50:16;3.15;;;2.97;;
351;SDS011;164;50.784;6.496;2022-08-03T05:52:44;2.75;;;2.55;;
351;SDS011;164;50.784;6.496;2022-08-03T05:55:12;3.10;;;2.90;;
351;SDS011;164;50.784;6.496;2022-08-03T05:57:40;5.78;;;3.40;;
351;SDS011;164;50.784;6.496;2022-08-03T06:00:08;3.38;;;3.17;;
351;SDS011;164;50.784;6.496;2022-08-03T06:02:37;3.17;;;2.65;;
351;SDS011;164;50.784;6.496;2022-08-03T06:05:05;2.67;;;2.47;;
351;SDS011;164;50.784;6.496;2022-08-03T06:07:33;2.05;;;1.92;;
351;SDS011;164;50.784;6.496;2022-08-03T06:10:00;2.50;;;2.35;;
351;SDS011;164;50.784;6.496;2022-08-03T06:12:29;3.45;;;2.90;;
351;SDS011;164;50.784;6.496;2022-08-03T06:14:56;4.45;;;2.90;;
351;SDS011;164;50.784;6.496;2022-08-03T06:17:23;3.35;;;2.80;;
351;SDS011;164;50.784;6.496;2022-08-03T06:19:50;2.65;;;2.35;;
351;SDS011;164;50.784;6.496;2022-08-03T06:22:18;2.70;;;2.50;;
351;SDS011;164;50.784;6.496;2022-08-03T06:24:46;3.40;;;2.35;;
351;SDS011;164;50.784;6.496;2022-08-03T06:27:13;2.60;;;2.40;;
351;SDS011;164;50.784;6.496;2022-08-03T06:29:41;3.05;;;2.33;;
351;SDS011;164;50.784;6.496;2022-08-03T06:32:08;2.45;;;2.25;;
351;SDS011;164;50.784;6.496;2022-08-03T06:34:35;2.33;;;2.13;;
351;SDS011;164;50.784;6.496;2022-08-03T06:37:02;2.70;;;2.22;;
351;SDS011;164;50.784;6.496;2022-08-03T06:39:29;2.85;;;2.65;;
351;SDS011;164;50.784;6.496;2022-08-03T06:41:57;4.47;;;1.80;;
351;SDS011;164;50.784;6.496;2022-08-03T06:44:24;3.10;;;2.90;;
351;SDS011;164;50.784;6.496;2022-08-03T06:46:52;2.83;;;1.80;;
351;SDS011;164;50.784;6.496;2022-08-03T06:49:19;1.95;;;1.90;;
351;SDS011;164;50.784;6.496;2022-08-03T06:51:47;2.17;;;1.90;;
351;SDS011;164;50.784;6.496;2022-08-03T06:54:16;2.00;;;1.73;;
351;SDS011;164;50.784;6.496;2022-08-03T06:56:43;2.30;;;2.15;;
351;SDS011;164;50.784;6.496;2022-08-03T06:59:10;3.50;;;1.70;;
351;SDS011;164;50.784;6.496;2022-08-03T07:01:37;2.00;;;1.70;;
351;SDS011;164;50.784;6.496;2022-08-03T07:04:05;4.95;;;2.20;;
351;SDS011;164;50.784;6.496;2022-08-03T07:06:32;1.87;;;1.50;;
351;SDS011;164;50.784;6.496;2022-08-03T07:09:00;2.80;;;2.00;;
351;SDS011;164;50.784;6.496;2022-08-03T07:11:27;5.20;;;2.20;;
351;SDS011;164;50.784;6.496;2022-08-03T07:13:54;3.93;;;1.70;;
351;SDS011;164;50.784;6.496;2022-08-03T07:16:21;4.73;;;1.63;;
351;SDS011;164;50.784;6.496;2022-08-03T07:18:48;2.07;;;1.60;;
351;SDS011;164;50.784;6.496;2022-08-03T07:21:17;2.90;;;1.50;;
351;SDS011;164;50.784;6.496;2022-08-03T07:23:44;2.93;;;2.30;;
351;SDS011;164;50.784;6.496;2022-08-03T07:26:11;2.80;;;2.00;;
351;SDS011;164;50.784;6.496;2022-08-03T07:28:38;2.60;;;1.63;;
351;SDS011;164;50.784;6.496;2022-08-03T07:31:05;2.67;;;2.10;;
351;SDS011;164;50.784;6.496;2022-08-03T07:33:32;2.60;;;2.20;;
351;SDS011;164;50.784;6.496;2022-08-03T07:35:59;2.00;;;1.90;;
351;SDS011;164;50.784;6.496;2022-08-03T07:38:28;1.50;;;1.40;;
351;SDS011;164;50.784;6.496;2022-08-03T07:40:55;1.60;;;1.50;;
351;SDS011;164;50.784;6.496;2022-08-03T07:43:22;3.10;;;1.80;;
351;SDS011;164;50.784;6.496;2022-08-03T07:45:49;4.73;;;1.97;;
351;SDS011;164;50.784;6.496;2022-08-03T07:48:16;2.33;;;1.60;;
351;SDS011;164;50.784;6.496;2022-08-03T07:50:43;1.53;;;1.40;;
351;SDS011;164;50.784;6.496;2022-08-03T07:53:10;1.60;;;1.40;;
351;SDS011;164;50.784;6.496;2022-08-03T07:55:39;2.43;;;1.70;;
351;SDS011;164;50.784;6.496;2022-08-03T07:58:07;4.50;;;1.70;;
351;SDS011;164;50.784;6.496;2022-08-03T08:00:36;3.50;;;1.97;;
351;SDS011;164;50.784;6.496;2022-08-03T08:03:04;4.63;;;1.87;;
351;SDS011;164;50.784;6.496;2022-08-03T08:05:31;3.03;;;2.13;;
351;SDS011;164;50.784;6.496;2022-08-03T08:07:58;2.53;;;1.63;;
351;SDS011;164;50.784;6.496;2022-08-03T08:10:25;1.57;;;1.57;;
351;SDS011;164;50.784;6.496;2022-08-03T08:12:55;3.97;;;1.90;;
351;SDS011;164;50.784;6.496;2022-08-03T08:15:22;2.33;;;1.77;;
351;SDS011;164;50.784;6.496;2022-08-03T08:17:50;2.87;;;1.83;;
351;SDS011;164;50.784;6.496;2022-08-03T08:20:19;4.80;;;2.00;;
351;SDS011;164;50.784;6.496;2022-08-03T08:22:47;2.00;;;1.90;;
351;SDS011;164;50.784;6.496;2022-08-03T08:25:14;5.40;;;1.90;;
351;SDS011;164;50.784;6.496;2022-08-03T08:27:42;3.47;;;1.63;;
351;SDS011;164;50.784;6.496;2022-08-03T08:30:12;4.83;;;1.60;;
351;SDS011;164;50.784;6.496;2022-08-03T08:32:42;2.10;;;2.00;;
351;SDS011;164;50.784;6.496;2022-08-03T08:35:09;2.83;;;1.50;;
351;SDS011;164;50.784;6.496;2022-08-03T08:37:37;1.30;;;1.30;;
351;SDS011;164;50.784;6.496;2022-08-03T08:40:05;3.73;;;2.10;;
351;SDS011;164;50.784;6.496;2022-08-03T08:42:33;2.30;;;1.57;;
351;SDS011;164;50.784;6.496;2022-08-03T08:45:03;2.47;;;2.27;;
351;SDS011;164;50.784;6.496;2022-08-03T08:47:35;2.40;;;1.93;;
351;SDS011;164;50.784;6.496;2022-08-03T08:50:04;2.30;;;2.10;;
351;SDS011;164;50.784;6.496;2022-08-03T08:52:35;1.93;;;1.53;;
351;SDS011;164;50.784;6.496;2022-08-03T08:55:06;2.50;;;1.87;;
351;SDS011;164;50.784;6.496;2022-08-03T08:57:36;3.57;;;1.93;;
351;SDS011;164;50.784;6.496;2022-08-03T09:00:05;2.07;;;1.23;;
351;SDS011;164;50.784;6.496;2022-08-03T09:02:36;2.77;;;1.20;;
351;SDS011;164;50.784;6.496;2022-08-03T09:05:03;2.37;;;1.43;;
351;SDS011;164;50.784;6.496;2022-08-03T09:07:31;1.80;;;1.63;;
351;SDS011;164;50.784;6.496;2022-08-03T09:09:58;1.53;;;1.40;;
351;SDS011;164;50.784;6.496;2022-08-03T09:12:25;1.93;;;1.53;;
351;SDS011;164;50.784;6.496;2022-08-03T09:14:53;4.30;;;1.27;;
351;SDS011;164;50.784;6.496;2022-08-03T09:17:20;8.03;;;1.77;;
351;SDS011;164;50.784;6.496;2022-08-03T09:22:33;2.70;;;1.37;;
351;SDS011;164;50.784;6.496;2022-08-03T09:25:01;1.63;;;1.00;;
351;SDS011;164;50.784;6.496;2022-08-03T09:27:30;1.50;;;1.10;;
351;SDS011;164;50.784;6.496;2022-08-03T09:30:11;1.23;;;1.17;;
351;SDS011;164;50.784;6.496;2022-08-03T09:32:39;1.17;;;1.07;;
351;SDS011;164;50.784;6.496;2022-08-03T09:35:07;0.93;;;0.90;;
351;SDS011;164;50.784;6.496;2022-08-03T09:37:35;1.93;;;1.23;;
351;SDS011;164;50.784;6.496;2022-08-03T09:40:03;7.63;;;1.60;;
351;SDS011;164;50.784;6.496;2022-08-03T09:42:30;1.40;;;1.03;;
351;SDS011;164;50.784;6.496;2022-08-03T09:44:59;2.00;;;1.33;;
351;SDS011;164;50.784;6.496;2022-08-03T09:47:27;1.63;;;0.93;;
351;SDS011;164;50.784;6.496;2022-08-03T09:49:55;2.27;;;1.50;;
351;SDS011;164;50.784;6.496;2022-08-03T09:52:30;2.00;;;1.33;;
351;SDS011;164;50.784;6.496;2022-08-03T09:54:58;1.80;;;1.40;;
351;SDS011;164;50.784;6.496;2022-08-03T09:57:27;2.50;;;1.17;;
351;SDS011;164;50.784;6.496;2022-08-03T10:00:04;2.13;;;0.90;;
351;SDS011;164;50.784;6.496;2022-08-03T10:02:35;3.13;;;1.10;;
351;SDS011;164;50.784;6.496;2022-08-03T10:05:03;4.03;;;1.50;;
351;SDS011;164;50.784;6.496;2022-08-03T10:07:40;3.60;;;1.10;;
351;SDS011;164;50.784;6.496;2022-08-03T10:10:08;2.87;;;1.47;;
351;SDS011;164;50.784;6.496;2022-08-03T10:12:36;2.90;;;1.70;;
351;SDS011;164;50.784;6.496;2022-08-03T10:15:04;1.60;;;1.27;;
351;SDS011;164;50.784;6.496;2022-08-03T10:17:32;2.90;;;1.30;;
351;SDS011;164;50.784;6.496;2022-08-03T10:20:00;6.63;;;1.30;;
351;SDS011;164;50.784;6.496;2022-08-03T10:22:28;2.80;;;1.47;;
351;SDS011;164;50.784;6.496;2022-08-03T10:25:01;2.93;;;1.37;;
351;SDS011;164;50.784;6.496;2022-08-03T10:27:32;2.10;;;1.50;;
351;SDS011;164;50.784;6.496;2022-08-03T10:30:02;1.40;;;1.27;;
351;SDS011;164;50.784;6.496;2022-08-03T10:32:33;2.20;;;1.17;;
351;SDS011;164;50.784;6.496;2022-08-03T10:35:04;2.73;;;1.50;;
351;SDS011;164;50.784;6.496;2022-08-03T10:37:36;1.63;;;1.40;;
351;SDS011;164;50.784;6.496;2022-08-03T10:40:08;3.33;;;0.90;;
351;SDS011;164;50.784;6.496;2022-08-03T10:42:38;1.23;;;1.00;;
351;SDS011;164;50.784;6.496;2022-08-03T10:45:12;2.73;;;1.10;;
351;SDS011;164;50.784;6.496;2022-08-03T10:47:43;1.83;;;1.20;;
351;SDS011;164;50.784;6.496;2022-08-03T10:50:11;1.47;;;0.80;;
351;SDS011;164;50.784;6.496;2022-08-03T10:55:30;4.43;;;1.37;;
351;SDS011;164;50.784;6.496;2022-08-03T11:01:18;2.20;;;1.20;;
351;SDS011;164;50.784;6.496;2022-08-03T11:04:16;1.97;;;1.23;;
351;SDS011;164;50.784;6.496;2022-08-03T11:06:44;2.67;;;1.27;;
351;SDS011;164;50.784;6.496;2022-08-03T11:09:19;1.47;;;1.07;;
351;SDS011;164;50.784;6.496;2022-08-03T11:11:47;1.07;;;0.80;;
351;SDS011;164;50.784;6.496;2022-08-03T11:14:15;1.37;;;0.80;;
351;SDS011;164;50.784;6.496;2022-08-03T11:16:44;1.53;;;1.37;;
351;SDS011;164;50.784;6.496;2022-08-03T11:19:14;1.20;;;1.00;;
351;SDS011;164;50.784;6.496;2022-08-03T11:21:56;2.40;;;1.10;;
351;SDS011;164;50.784;6.496;2022-08-03T11:27:26;0.90;;;0.87;;
351;SDS011;164;50.784;6.496;2022-08-03T11:29:56;2.03;;;1.07;;
351;SDS011;164;50.784;6.496;2022-08-03T11:35:23;4.73;;;1.57;;
351;SDS011;164;50.784;6.496;2022-08-03T11:38:07;3.10;;;1.07;;
351;SDS011;164;50.784;6.496;2022-08-03T11:40:38;2.07;;;1.10;;
351;SDS011;164;50.784;6.496;2022-08-03T11:43:06;2.57;;;1.63;;
351;SDS011;164;50.784;6.496;2022-08-03T11:45:35;4.20;;;1.30;;
351;SDS011;164;50.784;6.496;2022-08-03T11:48:12;2.77;;;1.73;;
351;SDS011;164;50.784;6.496;2022-08-03T11:50:40;3.10;;;1.40;;
351;SDS011;164;50.784;6.496;2022-08-03T11:53:18;9.43;;;1.70;;
351;SDS011;164;50.784;6.496;2022-08-03T11:55:47;1.40;;;1.13;;
351;SDS011;164;50.784;6.496;2022-08-03T11:58:15;2.53;;;1.43;;
351;SDS011;164;50.784;6.496;2022-08-03T12:00:44;2.33;;;1.40;;
351;SDS011;164;50.784;6.496;2022-08-03T12:03:12;2.00;;;1.00;;
351;SDS011;164;50.784;6.496;2022-08-03T12:05:42;1.10;;;1.00;;
351;SDS011;164;50.784;6.496;2022-08-03T12:08:12;2.77;;;1.50;;
351;SDS011;164;50.784;6.496;2022-08-03T12:10:44;1.50;;;1.07;;
351;SDS011;164;50.784;6.496;2022-08-03T12:13:14;4.60;;;1.10;;
351;SDS011;164;50.784;6.496;2022-08-03T12:15:42;4.73;;;1.90;;
351;SDS011;164;50.784;6.496;2022-08-03T12:18:16;3.83;;;1.17;;
351;SDS011;164;50.784;6.496;2022-08-03T12:20:48;2.50;;;1.10;;
351;SDS011;164;50.784;6.496;2022-08-03T12:23:25;1.67;;;0.93;;
351;SDS011;164;50.784;6.496;2022-08-03T12:25:59;2.50;;;1.27;;
351;SDS011;164;50.784;6.496;2022-08-03T12:28:27;4.30;;;1.77;;
351;SDS011;164;50.784;6.496;2022-08-03T12:30:55;1.60;;;1.50;;
351;SDS011;164;50.784;6.496;2022-08-03T12:33:28;3.50;;;1.00;;
351;SDS011;164;50.784;6.496;2022-08-03T12:36:02;1.47;;;1.40;;
351;SDS011;164;50.784;6.496;2022-08-03T12:38:32;3.90;;;1.10;;
351;SDS011;164;50.784;6.496;2022-08-03T12:43:53;1.17;;;1.10;;
351;SDS011;164;50.784;6.496;2022-08-03T12:46:21;1.83;;;1.50;;
351;SDS011;164;50.784;6.496;2022-08-03T12:49:09;3.77;;;1.67;;
351;SDS011;164;50.784;6.496;2022-08-03T12:51:54;2.03;;;1.30;;
351;SDS011;164;50.784;6.496;2022-08-03T12:54:25;3.67;;;1.50;;
351;SDS011;164;50.784;6.496;2022-08-03T12:56:58;1.50;;;1.00;;
351;SDS011;164;50.784;6.496;2022-08-03T12:59:26;1.07;;;0.97;;
351;SDS011;164;50.784;6.496;2022-08-03T13:01:54;1.37;;;1.20;;
351;SDS011;164;50.784;6.496;2022-08-03T13:04:24;1.40;;;1.17;;
351;SDS011;164;50.784;6.496;2022-08-03T13:06:56;4.20;;;1.30;;
351;SDS011;164;50.784;6.496;2022-08-03T13:09:24;1.10;;;0.97;;
351;SDS011;164;50.784;6.496;2022-08-03T13:12:08;3.10;;;1.40;;
351;SDS011;164;50.784;6.496;2022-08-03T13:14:53;1.90;;;1.37;;
351;SDS011;164;50.784;6.496;2022-08-03T13:17:23;1.57;;;1.50;;
351;SDS011;164;50.784;6.496;2022-08-03T13:20:05;2.67;;;1.17;;
351;SDS011;164;50.784;6.496;2022-08-03T13:22:33;2.60;;;1.43;;
351;SDS011;164;50.784;6.496;2022-08-03T13:25:00;2.53;;;1.60;;
351;SDS011;164;50.784;6.496;2022-08-03T13:30:30;1.97;;;1.40;;
351;SDS011;164;50.784;6.496;2022-08-03T13:32:57;1.43;;;1.20;;
351;SDS011;164;50.784;6.496;2022-08-03T13:35:24;2.73;;;1.67;;
351;SDS011;164;50.784;6.496;2022-08-03T13:38:06;2.83;;;1.50;;
351;SDS011;164;50.784;6.496;2022-08-03T13:40:33;1.23;;;1.03;;
351;SDS011;164;50.784;6.496;2022-08-03T13:43:04;1.33;;;1.17;;
351;SDS011;164;50.784;6.496;2022-08-03T13:48:44;3.00;;;1.77;;
351;SDS011;164;50.784;6.496;2022-08-03T13:51:14;1.83;;;1.37;;
351;SDS011;164;50.784;6.496;2022-08-03T13:53:41;1.80;;;1.30;;
351;SDS011;164;50.784;6.496;2022-08-03T13:56:09;2.83;;;1.60;;
351;SDS011;164;50.784;6.496;2022-08-03T13:58:36;2.93;;;1.27;;
351;SDS011;164;50.784;6.496;2022-08-03T14:01:04;1.80;;;1.33;;
351;SDS011;164;50.784;6.496;2022-08-03T14:06:43;1.90;;;1.40;;
351;SDS011;164;50.784;6.496;2022-08-03T14:09:10;1.63;;;1.03;;
351;SDS011;164;50.784;6.496;2022-08-03T14:11:38;4.27;;;1.57;;
351;SDS011;164;50.784;6.496;2022-08-03T14:14:19;2.20;;;1.27;;
351;SDS011;164;50.784;6.496;2022-08-03T14:16:47;5.20;;;1.43;;
351;SDS011;164;50.784;6.496;2022-08-03T14:19:16;2.27;;;1.30;;
351;SDS011;164;50.784;6.496;2022-08-03T14:21:43;2.10;;;1.13;;
351;SDS011;164;50.784;6.496;2022-08-03T14:24:18;4.47;;;1.40;;
351;SDS011;164;50.784;6.496;2022-08-03T14:26:46;1.63;;;1.57;;
351;SDS011;164;50.784;6.496;2022-08-03T14:29:13;3.97;;;1.30;;
351;SDS011;164;50.784;6.496;2022-08-03T14:31:40;3.83;;;1.50;;
351;SDS011;164;50.784;6.496;2022-08-03T14:34:08;1.47;;;1.40;;
351;SDS011;164;50.784;6.496;2022-08-03T14:36:39;9.33;;;2.00;;
351;SDS011;164;50.784;6.496;2022-08-03T14:39:08;2.77;;;1.50;;
351;SDS011;164;50.784;6.496;2022-08-03T14:41:35;2.40;;;1.60;;
351;SDS011;164;50.784;6.496;2022-08-03T14:44:16;2.47;;;1.10;;
351;SDS011;164;50.784;6.496;2022-08-03T14:46:43;2.40;;;1.03;;
351;SDS011;164;50.784;6.496;2022-08-03T14:49:10;2.63;;;1.70;;
351;SDS011;164;50.784;6.496;2022-08-03T14:51:46;1.77;;;1.30;;
351;SDS011;164;50.784;6.496;2022-08-03T14:54:13;1.07;;;0.87;;
351;SDS011;164;50.784;6.496;2022-08-03T14:56:54;2.70;;;1.27;;
351;SDS011;164;50.784;6.496;2022-08-03T14:59:23;3.60;;;1.47;;
351;SDS011;164;50.784;6.496;2022-08-03T15:01:50;2.50;;;1.60;;
351;SDS011;164;50.784;6.496;2022-08-03T15:04:18;4.63;;;1.37;;
351;SDS011;164;50.784;6.496;2022-08-03T15:09:59;5.50;;;1.10;;
351;SDS011;164;50.784;6.496;2022-08-03T15:12:40;3.20;;;1.53;;
351;SDS011;164;50.784;6.496;2022-08-03T15:15:07;2.63;;;1.00;;
351;SDS011;164;50.784;6.496;2022-08-03T15:17:42;3.00;;;1.20;;
351;SDS011;164;50.784;6.496;2022-08-03T15:20:23;1.77;;;1.20;;
351;SDS011;164;50.784;6.496;2022-08-03T15:23:04;7.70;;;1.57;;
351;SDS011;164;50.784;6.496;2022-08-03T15:25:33;1.90;;;1.47;;
351;SDS011;164;50.784;6.496;2022-08-03T15:28:00;1.23;;;1.10;;
351;SDS011;164;50.784;6.496;2022-08-03T15:30:27;3.90;;;1.33;;
351;SDS011;164;50.784;6.496;2022-08-03T15:32:57;1.90;;;1.40;;
351;SDS011;164;50.784;6.496;2022-08-03T15:35:26;2.40;;;1.07;;
351;SDS011;164;50.784;6.496;2022-08-03T15:37:57;3.47;;;1.10;;
351;SDS011;164;50.784;6.496;2022-08-03T15:40:24;4.83;;;1.60;;
351;SDS011;164;50.784;6.496;2022-08-03T15:42:52;4.30;;;1.40;;
351;SDS011;164;50.784;6.496;2022-08-03T15:45:19;1.30;;;1.20;;
351;SDS011;164;50.784;6.496;2022-08-03T15:47:46;3.63;;;1.30;;
351;SDS011;164;50.784;6.496;2022-08-03T15:50:13;2.10;;;1.20;;
351;SDS011;164;50.784;6.496;2022-08-03T15:52:40;2.90;;;1.10;;
351;SDS011;164;50.784;6.496;2022-08-03T15:55:08;3.00;;;1.17;;
351;SDS011;164;50.784;6.496;2022-08-03T15:57:35;2.17;;;1.27;;
351;SDS011;164;50.784;6.496;2022-08-03T16:00:05;2.63;;;1.30;;
351;SDS011;164;50.784;6.496;2022-08-03T16:02:33;1.67;;;1.00;;
351;SDS011;164;50.784;6.496;2022-08-03T16:05:01;5.33;;;1.10;;
351;SDS011;164;50.784;6.496;2022-08-03T16:07:28;5.13;;;1.10;;
351;SDS011;164;50.784;6.496;2022-08-03T16:10:12;1.90;;;1.10;;
351;SDS011;164;50.784;6.496;2022-08-03T16:12:40;2.30;;;1.10;;
351;SDS011;164;50.784;6.496;2022-08-03T16:15:10;2.20;;;1.10;;
351;SDS011;164;50.784;6.496;2022-08-03T16:17:39;2.10;;;0.97;;
351;SDS011;164;50.784;6.496;2022-08-03T16:20:07;3.57;;;0.93;;
351;SDS011;164;50.784;6.496;2022-08-03T16:22:39;2.10;;;1.33;;
351;SDS011;164;50.784;6.496;2022-08-03T16:25:08;2.63;;;1.00;;
351;SDS011;164;50.784;6.496;2022-08-03T16:27:36;1.33;;;1.00;;
351;SDS011;164;50.784;6.496;2022-08-03T16:30:04;2.47;;;1.00;;